Time;durP1;ratioP1;P1;durP2;ratioP2;P2;SDS_P1;SDS_P2;PMS_P1;PMS_P2;Temp;Humidity;BMP_temperature;BMP_pressure;BME280_temperature;BME280_humidity;BME280_pressure;Samples;Min_cycle;Max_cycle;Signal;HPM_P1;HPM_P2
2021/03/24 00:01:10;;;;;;;24.50;10.97;;;8.40;99.90;;;;;;4981017;28;20485;-48
2021/03/24 00:03:40;;;;;;;15.27;9.87;;;8.40;99.90;;;;;;4980884;28;20451;-46
2021/03/24 00:06:08;;;;;;;15.60;11.30;;;8.40;99.90;;;;;;4980736;28;20486;-45
2021/03/24 00:08:36;;;;;;;20.10;10.70;;;8.40;99.90;;;;;;4981419;28;20881;-47
2021/03/24 00:11:06;;;;;;;16.57;9.97;;;8.40;99.90;;;;;;4981680;28;20799;-52
2021/03/24 00:13:34;;;;;;;18.77;10.67;;;8.40;99.90;;;;;;4981475;28;20792;-48
2021/03/24 00:16:04;;;;;;;15.23;9.87;;;8.40;99.90;;;;;;4981154;28;20989;-47
2021/03/24 00:18:33;;;;;;;17.50;10.13;;;8.40;99.90;;;;;;4980494;28;20796;-48
2021/03/24 00:21:04;;;;;;;14.17;8.17;;;8.40;99.90;;;;;;4981069;28;20848;-51
2021/03/24 00:23:38;;;;;;;16.10;9.27;;;8.40;99.90;;;;;;4980905;28;20469;-47
2021/03/24 00:26:06;;;;;;;15.93;8.90;;;8.40;99.90;;;;;;4981342;28;20814;-46
2021/03/24 00:28:34;;;;;;;15.97;9.70;;;8.40;99.90;;;;;;4980564;28;20835;-47
2021/03/24 00:31:03;;;;;;;17.93;9.27;;;8.40;99.90;;;;;;4980104;28;20787;-50
2021/03/24 00:33:32;;;;;;;17.83;10.50;;;8.40;99.90;;;;;;4981230;28;20825;-48
2021/03/24 00:36:00;;;;;;;13.70;8.90;;;8.40;99.90;;;;;;4980673;28;20813;-47
2021/03/24 00:38:30;;;;;;;15.70;10.40;;;8.40;99.90;;;;;;4980301;28;20858;-50
2021/03/24 00:41:00;;;;;;;14.20;9.20;;;8.30;99.90;;;;;;4980335;28;20828;-50
2021/03/24 00:43:28;;;;;;;14.50;9.13;;;8.40;99.90;;;;;;4980745;28;20989;-51
2021/03/24 00:45:57;;;;;;;17.10;9.63;;;8.40;99.90;;;;;;4980550;28;20776;-50
2021/03/24 00:48:29;;;;;;;16.23;9.97;;;8.30;99.90;;;;;;4980546;28;20870;-51
2021/03/24 00:51:00;;;;;;;13.80;7.63;;;8.40;99.90;;;;;;4980893;28;20781;-48
2021/03/24 00:53:30;;;;;;;14.17;8.20;;;8.40;99.90;;;;;;4980198;28;20447;-50
2021/03/24 00:55:58;;;;;;;16.80;10.00;;;8.30;99.90;;;;;;4980876;28;20455;-49
2021/03/24 00:58:26;;;;;;;16.20;9.73;;;8.30;99.90;;;;;;4981020;28;20807;-47
2021/03/24 01:00:54;;;;;;;19.27;10.73;;;8.30;99.90;;;;;;4988421;28;20832;-47
2021/03/24 01:03:23;;;;;;;17.70;8.60;;;8.30;99.90;;;;;;4989435;28;21006;-46
2021/03/24 01:05:52;;;;;;;13.30;8.30;;;8.30;99.90;;;;;;4981972;28;20836;-46
2021/03/24 01:08:23;;;;;;;12.83;8.20;;;8.30;99.90;;;;;;4961465;29;20483;-46
2021/03/24 01:10:54;;;;;;;13.80;9.77;;;8.30;99.90;;;;;;4971081;28;20802;-49
2021/03/24 01:13:23;;;;;;;14.20;8.70;;;8.30;99.90;;;;;;4970355;28;20863;-49
2021/03/24 01:15:55;;;;;;;13.40;8.50;;;8.30;99.90;;;;;;4981930;28;20931;-47
2021/03/24 01:23:34;;;;;;;16.47;7.43;;;8.30;99.90;;;;;;5661840;23;20842;-51
2021/03/24 01:26:03;;;;;;;15.80;8.57;;;8.30;99.90;;;;;;4984073;28;20855;-45
2021/03/24 01:28:32;;;;;;;15.20;9.03;;;8.30;99.90;;;;;;4983083;28;20871;-46
2021/03/24 01:31:02;;;;;;;21.47;9.30;;;8.30;99.90;;;;;;4989967;28;20796;-45
2021/03/24 01:33:30;;;;;;;14.83;8.00;;;8.30;99.90;;;;;;4988769;28;20809;-48
2021/03/24 01:35:58;;;;;;;12.83;8.30;;;8.20;99.90;;;;;;4984658;28;20461;-47
2021/03/24 01:38:27;;;;;;;13.07;7.60;;;8.20;99.90;;;;;;4984495;28;20768;-47
2021/03/24 01:40:59;;;;;;;19.20;8.83;;;8.20;99.90;;;;;;4986217;28;20864;-46
2021/03/24 01:43:30;;;;;;;12.87;7.70;;;8.20;99.90;;;;;;4989158;28;20780;-51
2021/03/24 01:46:27;;;;;;;18.20;8.30;;;8.20;99.90;;;;;;4986984;28;20800;-49
2021/03/24 01:48:58;;;;;;;14.77;8.20;;;8.20;99.90;;;;;;4990384;28;20767;-50
2021/03/24 01:51:29;;;;;;;13.23;8.40;;;8.20;99.90;;;;;;4990306;28;20890;-52
2021/03/24 01:53:58;;;;;;;13.23;8.13;;;8.20;99.90;;;;;;4984088;28;20942;-45
2021/03/24 01:56:29;;;;;;;16.83;8.67;;;8.10;99.90;;;;;;4987476;28;20799;-50
2021/03/24 01:58:59;;;;;;;14.60;7.97;;;8.10;99.90;;;;;;4985536;28;20819;-47
2021/03/24 02:01:27;;;;;;;14.77;8.00;;;8.10;99.90;;;;;;4980287;28;20772;-46
2021/03/24 02:03:55;;;;;;;13.43;8.83;;;8.10;99.90;;;;;;4983259;28;20780;-46
2021/03/24 02:06:28;;;;;;;12.93;8.70;;;8.20;99.90;;;;;;4988195;28;20877;-51
2021/03/24 02:09:06;;;;;;;16.60;8.27;;;8.20;99.90;;;;;;4985671;28;20794;-48
2021/03/24 02:11:38;;;;;;;15.87;9.37;;;8.10;99.90;;;;;;4983129;28;20798;-49
2021/03/24 02:14:13;;;;;;;14.53;7.77;;;8.20;99.90;;;;;;4989170;28;20894;-48
2021/03/24 02:16:44;;;;;;;12.27;8.70;;;8.20;99.90;;;;;;4984767;28;20971;-49
2021/03/24 02:19:23;;;;;;;15.77;9.47;;;8.10;99.90;;;;;;4983272;28;20783;-50
2021/03/24 02:21:52;;;;;;;21.23;9.67;;;8.10;99.90;;;;;;4977049;28;20855;-49
2021/03/24 02:24:35;;;;;;;12.30;7.10;;;8.10;99.90;;;;;;4976535;28;20863;-46
2021/03/24 02:27:12;;;;;;;15.53;8.20;;;8.10;99.90;;;;;;4976713;28;20889;-46
2021/03/24 03:32:38;;;;;;;16.63;10.10;;;8.20;99.90;;;;;;5454726;23;20505;-48
2021/03/24 03:35:12;;;;;;;13.10;9.10;;;8.10;99.90;;;;;;4975746;28;20788;-48
2021/03/24 03:37:40;;;;;;;17.30;10.47;;;8.10;99.90;;;;;;4975294;28;20780;-50
2021/03/24 03:40:14;;;;;;;18.20;10.30;;;8.20;99.90;;;;;;4975278;28;20796;-50
2021/03/24 03:42:43;;;;;;;14.70;10.00;;;8.20;99.90;;;;;;4975417;28;20816;-48
2021/03/24 03:45:13;;;;;;;13.00;9.70;;;8.20;99.90;;;;;;4975057;28;20800;-50
2021/03/24 03:47:44;;;;;;;11.03;8.00;;;8.10;99.90;;;;;;4975071;28;20871;-50
2021/03/24 03:50:17;;;;;;;18.97;9.87;;;8.10;99.90;;;;;;4975299;28;20799;-47
2021/03/24 03:52:54;;;;;;;16.13;8.87;;;8.10;99.90;;;;;;4976290;28;20794;-49
2021/03/24 03:55:37;;;;;;;15.80;9.13;;;8.10;99.90;;;;;;4976355;28;20474;-47
2021/03/24 03:58:12;;;;;;;16.83;8.50;;;8.20;99.90;;;;;;4977860;28;20795;-45
2021/03/24 04:00:51;;;;;;;16.40;9.30;;;8.10;99.90;;;;;;4977805;28;20765;-51
2021/03/24 04:03:25;;;;;;;21.63;10.50;;;8.20;99.90;;;;;;4977824;28;20820;-51
2021/03/24 04:06:03;;;;;;;17.57;10.03;;;8.10;99.90;;;;;;4977538;28;20916;-48
2021/03/24 04:08:34;;;;;;;12.33;9.07;;;8.10;99.90;;;;;;4977928;28;20814;-50
2021/03/24 04:11:06;;;;;;;18.83;10.60;;;8.10;99.90;;;;;;4978103;28;20792;-48
2021/03/24 04:13:37;;;;;;;15.27;9.17;;;8.10;99.90;;;;;;4977956;28;20783;-47
2021/03/24 04:16:07;;;;;;;16.60;9.90;;;8.10;99.90;;;;;;4977827;28;20828;-47
2021/03/24 04:18:40;;;;;;;16.20;9.20;;;8.10;99.90;;;;;;4978394;28;20466;-49
2021/03/24 04:21:10;;;;;;;15.87;9.80;;;8.10;99.90;;;;;;4978638;28;20938;-49
2021/03/24 04:23:44;;;;;;;14.30;8.83;;;8.10;99.90;;;;;;4977908;28;20791;-48
2021/03/24 04:26:16;;;;;;;13.13;8.50;;;8.10;99.90;;;;;;4977944;28;20773;-50
2021/03/24 04:28:58;;;;;;;13.97;8.50;;;8.00;99.90;;;;;;4977999;28;20815;-46
2021/03/24 04:31:29;;;;;;;18.17;10.40;;;8.00;99.90;;;;;;4977767;28;20451;-47
2021/03/24 04:33:59;;;;;;;15.57;9.20;;;8.00;99.90;;;;;;4978328;28;20761;-44
2021/03/24 04:36:34;;;;;;;16.37;9.10;;;8.00;99.90;;;;;;4977335;28;20823;-46
2021/03/24 04:39:06;;;;;;;17.33;10.20;;;8.00;99.90;;;;;;4978358;28;20861;-45
2021/03/24 04:41:40;;;;;;;15.40;9.97;;;8.10;99.90;;;;;;4978108;28;20833;-51
2021/03/24 04:44:14;;;;;;;14.07;9.47;;;8.10;99.90;;;;;;4977695;28;20784;-52
2021/03/24 04:46:45;;;;;;;13.97;9.67;;;8.10;99.90;;;;;;4977985;28;20467;-47
2021/03/24 04:49:17;;;;;;;24.50;11.93;;;8.10;99.90;;;;;;4978281;28;20773;-47
2021/03/24 04:51:47;;;;;;;17.60;9.77;;;8.10;99.90;;;;;;4972978;28;20793;-47
2021/03/24 04:54:20;;;;;;;19.73;11.00;;;8.10;99.90;;;;;;4965066;28;20467;-48
2021/03/24 04:56:52;;;;;;;19.83;11.00;;;8.00;99.90;;;;;;4955395;29;20773;-49
2021/03/24 04:59:23;;;;;;;18.60;11.90;;;8.00;99.90;;;;;;4970285;28;20903;-48
2021/03/24 05:01:56;;;;;;;18.67;10.80;;;8.00;99.90;;;;;;4976128;28;20459;-51
2021/03/24 05:04:31;;;;;;;18.20;10.80;;;8.00;99.90;;;;;;4956816;28;21150;-49
2021/03/24 05:07:06;;;;;;;22.07;10.70;;;8.00;99.90;;;;;;4970556;28;20832;-49
2021/03/24 05:09:35;;;;;;;18.17;10.10;;;8.00;99.90;;;;;;4978174;28;20469;-45
2021/03/24 05:59:20;;;;;;;27.43;12.43;;;8.00;99.90;;;;;;4971299;28;20514;-47
2021/03/24 06:01:54;;;;;;;23.47;13.77;;;8.00;99.90;;;;;;4974364;28;20943;-45
2021/03/24 06:04:30;;;;;;;21.40;14.17;;;8.10;99.90;;;;;;4994381;28;20828;-47
2021/03/24 06:07:40;;;;;;;24.23;14.07;;;8.10;99.90;;;;;;4980205;28;20784;-45
2021/03/24 06:10:44;;;;;;;28.97;15.73;;;8.20;99.90;;;;;;4991067;28;20496;-46
2021/03/24 06:14:05;;;;;;;23.13;13.50;;;8.20;99.90;;;;;;4982086;28;20824;-49
2021/03/24 06:17:29;;;;;;;22.83;13.83;;;8.20;99.90;;;;;;4974210;28;20773;-43
2021/03/24 06:20:11;;;;;;;26.03;13.20;;;8.20;99.90;;;;;;4901037;29;20538;-43
2021/03/24 06:22:52;;;;;;;26.30;15.17;;;8.20;99.90;;;;;;4901581;29;20470;-45
2021/03/24 06:25:32;;;;;;;24.80;14.70;;;8.30;99.90;;;;;;4891501;29;20475;-44
2021/03/24 06:28:22;;;;;;;26.90;16.13;;;8.40;99.90;;;;;;4900441;29;20849;-46
2021/03/24 06:31:05;;;;;;;31.53;16.60;;;8.40;99.90;;;;;;4902235;29;20465;-45
2021/03/24 06:34:09;;;;;;;31.40;18.07;;;8.40;99.90;;;;;;4900360;29;20858;-46
2021/03/24 06:37:05;;;;;;;32.60;15.90;;;8.40;99.90;;;;;;4900276;29;20888;-49
2021/03/24 06:39:47;;;;;;;29.30;16.20;;;8.50;99.90;;;;;;4905930;29;20785;-48
2021/03/24 06:42:33;;;;;;;36.33;20.97;;;8.50;99.90;;;;;;4918792;29;20561;-46
2021/03/24 06:45:30;;;;;;;41.73;20.43;;;8.50;99.90;;;;;;4920342;29;20791;-47
2021/03/24 06:48:03;;;;;;;36.00;20.27;;;8.50;99.90;;;;;;4919452;29;20895;-50
2021/03/24 06:51:12;;;;;;;40.23;23.53;;;8.40;99.90;;;;;;4946452;28;20814;-44
2021/03/24 06:54:08;;;;;;;42.23;25.80;;;8.40;99.90;;;;;;4995009;28;20450;-48
2021/03/24 06:57:17;;;;;;;43.27;22.17;;;8.40;99.90;;;;;;5001924;28;20470;-51
2021/03/24 07:00:07;;;;;;;42.23;24.50;;;8.40;99.90;;;;;;4982878;28;20757;-46
2021/03/24 07:03:04;;;;;;;47.77;25.40;;;8.30;99.90;;;;;;4982936;28;20761;-48
2021/03/24 07:06:12;;;;;;;41.20;22.20;;;8.20;99.90;;;;;;4958264;28;20934;-44
2021/03/24 07:09:12;;;;;;;34.20;14.17;;;8.20;99.90;;;;;;4921082;29;20529;-44
2021/03/24 07:11:54;;;;;;;42.07;23.70;;;9.00;99.90;;;;;;4921600;29;20951;-45
2021/03/24 07:15:09;;;;;;;44.87;25.60;;;9.20;99.90;;;;;;4963468;28;20459;-44
2021/03/24 07:18:02;;;;;;;39.87;22.70;;;9.10;99.90;;;;;;4959715;29;20828;-49
2021/03/24 07:20:58;;;;;;;50.07;26.00;;;8.90;99.90;;;;;;4960338;29;20466;-48
2021/03/24 07:23:48;;;;;;;49.97;26.63;;;8.70;99.90;;;;;;4959153;29;20466;-48
2021/03/24 07:26:30;;;;;;;49.63;27.90;;;8.60;99.90;;;;;;4957502;28;21192;-46
2021/03/24 07:29:07;;;;;;;46.90;27.47;;;8.50;99.90;;;;;;4945205;29;20472;-45
2021/03/24 07:32:06;;;;;;;50.60;26.80;;;8.50;99.90;;;;;;4951598;29;20475;-45
2021/03/24 07:34:55;;;;;;;46.33;25.23;;;8.60;99.90;;;;;;4942319;29;20511;-47
2021/03/24 07:38:01;;;;;;;47.83;27.67;;;8.70;99.90;;;;;;4961260;28;20792;-62
2021/03/24 07:40:58;;;;;;;49.00;28.67;;;8.70;99.90;;;;;;4918527;29;20462;-62
2021/03/24 07:43:57;;;;;;;75.13;27.80;;;8.60;99.90;;;;;;4966544;28;20451;-62
2021/03/24 07:46:57;;;;;;;51.77;27.90;;;8.50;99.90;;;;;;4966420;28;20828;-63
2021/03/24 07:49:59;;;;;;;59.53;28.97;;;8.50;99.90;;;;;;4973011;28;20757;-62
2021/03/24 07:52:49;;;;;;;54.83;30.30;;;8.60;99.90;;;;;;5935869;23;21718;-61
2021/03/24 07:55:23;;;;;;;53.17;26.83;;;8.70;99.90;;;;;;4925801;29;20533;-62
2021/03/24 08:06:15;;;;;;;65.63;29.53;;;8.90;99.90;;;;;;5463886;23;20484;-62
2021/03/24 08:09:15;;;;;;;51.47;28.33;;;8.90;99.90;;;;;;4983526;28;20479;-62
2021/03/24 08:11:54;;;;;;;56.40;29.60;;;9.00;99.90;;;;;;4984377;28;20455;-63
2021/03/24 08:14:56;;;;;;;49.67;28.70;;;9.10;99.90;;;;;;4980816;28;20977;-62
2021/03/24 08:17:36;;;;;;;54.30;27.70;;;9.20;99.90;;;;;;4986875;28;20843;-62
2021/03/24 08:20:28;;;;;;;51.30;26.60;;;9.10;99.90;;;;;;4985205;28;20621;-63
2021/03/24 08:23:08;;;;;;;49.30;27.23;;;9.20;99.90;;;;;;4983299;28;20852;-63
2021/03/24 08:25:48;;;;;;;46.60;28.67;;;9.20;99.90;;;;;;4968204;28;20451;-63
2021/03/24 08:28:30;;;;;;;47.30;26.97;;;9.30;99.90;;;;;;4961600;29;20515;-62
2021/03/24 08:31:24;;;;;;;45.73;24.80;;;9.40;99.90;;;;;;4961470;29;20780;-62
2021/03/24 08:34:03;;;;;;;48.20;27.97;;;9.40;99.90;;;;;;4960151;29;20483;-63
2021/03/24 08:37:25;;;;;;;45.93;25.20;;;9.50;99.90;;;;;;4960549;29;20451;-63
2021/03/24 08:40:21;;;;;;;55.17;28.40;;;9.60;99.90;;;;;;4886694;29;21119;-62
2021/03/24 08:43:13;;;;;;;46.43;26.93;;;9.80;99.90;;;;;;4886806;29;20914;-62
2021/03/24 08:45:50;;;;;;;42.33;26.53;;;9.80;99.90;;;;;;4961773;29;20804;-62
2021/03/24 08:48:28;;;;;;;50.83;28.80;;;9.90;99.90;;;;;;4964218;29;20821;-62
2021/03/24 08:51:03;;;;;;;52.00;25.80;;;10.00;99.90;;;;;;4963934;29;20807;-64
2021/03/24 08:53:39;;;;;;;48.87;26.23;;;9.90;99.90;;;;;;4964232;29;20780;-63
2021/03/24 08:56:19;;;;;;;52.30;28.10;;;9.90;99.90;;;;;;4964614;29;20832;-63
2021/03/24 08:58:59;;;;;;;55.77;29.30;;;10.00;99.90;;;;;;4964066;29;20765;-63
2021/03/24 09:01:59;;;;;;;50.73;27.77;;;10.00;99.90;;;;;;4963009;29;20800;-63
2021/03/24 09:05:05;;;;;;;50.07;24.73;;;10.20;99.90;;;;;;4962963;29;20796;-61
2021/03/24 09:07:50;;;;;;;51.00;27.23;;;10.50;99.90;;;;;;4962807;29;20483;-63
2021/03/24 09:10:34;;;;;;;57.80;28.70;;;10.60;99.90;;;;;;4962796;29;20832;-63
2021/03/24 09:13:08;;;;;;;45.20;26.00;;;10.70;99.90;;;;;;4963609;29;20455;-63
2021/03/24 09:15:47;;;;;;;48.13;27.07;;;10.80;99.90;;;;;;4963328;29;20819;-63
2021/03/24 09:18:22;;;;;;;43.00;25.90;;;10.90;99.90;;;;;;4963113;29;20631;-62
2021/03/24 09:21:15;;;;;;;50.60;27.23;;;11.00;99.90;;;;;;4963173;29;20751;-62
2021/03/24 09:24:27;;;;;;;52.80;29.93;;;11.10;99.90;;;;;;4962501;29;20757;-64
2021/03/24 09:27:39;;;;;;;54.67;28.70;;;11.20;99.90;;;;;;4962577;29;20777;-64
2021/03/24 09:30:34;;;;;;;47.23;26.17;;;11.20;99.90;;;;;;4962239;29;20791;-64
2021/03/24 09:33:19;;;;;;;56.97;29.03;;;11.30;99.90;;;;;;4960933;29;20784;-63
2021/03/24 09:35:56;;;;;;;47.87;26.47;;;11.30;99.90;;;;;;4962472;28;20784;-63
2021/03/24 09:38:34;;;;;;;50.63;29.60;;;11.30;99.90;;;;;;4962845;29;20805;-64
2021/03/24 09:41:21;;;;;;;44.93;27.77;;;11.30;99.90;;;;;;4963697;29;20760;-63
2021/03/24 09:43:53;;;;;;;53.83;27.80;;;11.30;99.90;;;;;;4962969;29;20936;-64
2021/03/24 09:46:36;;;;;;;48.37;28.10;;;11.30;99.90;;;;;;4963312;29;20772;-63
2021/03/24 09:49:14;;;;;;;54.47;27.33;;;11.20;99.90;;;;;;4962401;28;20839;-64
2021/03/24 09:51:47;;;;;;;47.00;25.47;;;11.00;99.90;;;;;;4962912;29;21041;-63
2021/03/24 09:54:21;;;;;;;45.50;26.40;;;10.90;99.90;;;;;;4962887;28;20456;-63
2021/03/24 09:57:02;;;;;;;50.97;27.17;;;10.90;99.90;;;;;;4996051;28;20454;-64
2021/03/24 09:59:42;;;;;;;48.87;26.47;;;10.90;99.90;;;;;;4999513;28;20434;-63
2021/03/24 10:02:22;;;;;;;52.77;27.60;;;10.90;99.90;;;;;;4999339;28;20924;-63
2021/03/24 10:04:53;;;;;;;55.50;27.33;;;10.80;99.90;;;;;;4998733;28;20482;-63
2021/03/24 10:07:24;;;;;;;49.30;26.93;;;10.70;99.90;;;;;;4999260;28;20502;-63
2021/03/24 10:10:03;;;;;;;49.83;26.87;;;10.60;99.90;;;;;;4999798;28;20420;-63
2021/03/24 10:12:38;;;;;;;48.13;27.13;;;10.60;99.90;;;;;;4999024;28;20842;-63
2021/03/24 10:15:24;;;;;;;49.83;27.60;;;10.90;99.90;;;;;;4999005;28;20515;-63
2021/03/24 10:17:58;;;;;;;49.90;27.93;;;11.00;99.90;;;;;;4998880;28;21006;-63
2021/03/24 10:20:37;;;;;;;49.17;28.97;;;11.10;99.90;;;;;;4999048;28;20451;-62
2021/03/24 10:23:09;;;;;;;45.27;26.07;;;11.10;99.90;;;;;;4998815;28;20506;-63
2021/03/24 10:25:41;;;;;;;50.90;27.23;;;11.00;99.90;;;;;;4998603;28;20451;-64
2021/03/24 10:28:16;;;;;;;50.90;27.90;;;11.00;99.90;;;;;;4999063;28;20463;-63
2021/03/24 10:30:54;;;;;;;56.57;28.70;;;11.00;99.90;;;;;;4998786;28;20608;-63
2021/03/24 10:33:32;;;;;;;49.77;26.77;;;11.10;99.90;;;;;;4999374;28;20424;-65
2021/03/24 10:36:14;;;;;;;49.03;27.53;;;11.10;99.90;;;;;;4999086;28;20466;-63
2021/03/24 10:38:48;;;;;;;57.57;28.20;;;11.10;99.90;;;;;;4999343;28;20502;-63
2021/03/24 10:41:52;;;;;;;46.10;26.10;;;11.20;99.90;;;;;;4998839;28;20498;-63
2021/03/24 14:01:13;;;;;;;33.23;21.57;;;14.60;99.90;;;;;;5369441;23;20480;-64
2021/03/24 14:03:49;;;;;;;29.93;21.00;;;14.50;99.90;;;;;;4949621;29;20793;-63
2021/03/24 14:06:26;;;;;;;34.27;20.43;;;14.60;99.90;;;;;;4949421;29;20444;-64
2021/03/24 14:09:01;;;;;;;31.60;20.60;;;14.60;99.90;;;;;;4947774;29;20856;-63
2021/03/24 14:11:49;;;;;;;34.77;22.33;;;14.70;99.60;;;;;;4941936;29;20792;-63
2021/03/24 14:14:30;;;;;;;37.17;23.77;;;14.70;99.10;;;;;;4947776;29;20453;-64
2021/03/24 14:17:06;;;;;;;31.57;21.90;;;14.70;99.20;;;;;;4947803;29;20803;-64
2021/03/24 14:19:46;;;;;;;31.27;21.43;;;14.80;98.80;;;;;;4945991;29;20778;-64
2021/03/24 14:22:26;;;;;;;31.90;21.90;;;14.90;98.20;;;;;;4945992;29;20801;-65
2021/03/24 14:25:22;;;;;;;35.10;22.13;;;14.90;97.60;;;;;;4945583;29;20829;-64
2021/03/24 14:28:01;;;;;;;37.43;22.80;;;14.90;97.50;;;;;;4945157;29;20817;-65
2021/03/24 14:30:34;;;;;;;35.27;21.67;;;14.90;97.40;;;;;;4948614;29;20462;-64
2021/03/24 14:33:12;;;;;;;37.07;22.43;;;14.90;97.40;;;;;;4948598;29;20844;-67
2021/03/24 14:35:52;;;;;;;36.37;21.60;;;15.00;97.80;;;;;;4947086;29;20759;-64
2021/03/24 14:38:40;;;;;;;34.73;21.97;;;15.00;96.60;;;;;;4952783;29;20761;-64
2021/03/24 14:41:14;;;;;;;34.43;23.57;;;15.00;96.80;;;;;;4957073;29;20868;-64
2021/03/24 14:44:08;;;;;;;43.10;22.90;;;15.10;96.40;;;;;;4957673;29;20460;-64
2021/03/24 14:47:03;;;;;;;40.73;23.47;;;15.10;96.60;;;;;;4957292;29;20758;-64
2021/03/24 14:50:04;;;;;;;34.87;23.23;;;15.20;96.90;;;;;;4941023;29;20578;-66
2021/03/24 14:52:35;;;;;;;37.20;21.80;;;15.30;96.00;;;;;;4957019;29;20467;-63
2021/03/24 14:55:08;;;;;;;37.00;25.27;;;15.10;95.50;;;;;;4957212;29;20852;-64
2021/03/24 14:57:38;;;;;;;39.27;24.50;;;15.00;95.70;;;;;;4956892;29;20849;-65
2021/03/24 15:00:31;;;;;;;37.67;22.77;;;14.80;96.10;;;;;;4957012;28;20850;-64
2021/03/24 15:03:14;;;;;;;38.93;23.83;;;14.60;96.30;;;;;;4954460;29;20460;-64
2021/03/24 15:05:59;;;;;;;41.53;25.30;;;14.60;96.40;;;;;;4956964;29;20751;-64
2021/03/24 15:08:31;;;;;;;43.80;25.50;;;14.60;96.40;;;;;;4952235;29;20824;-63
2021/03/24 15:11:09;;;;;;;35.33;22.50;;;14.40;96.60;;;;;;4945440;29;20786;-65
2021/03/24 15:14:00;;;;;;;40.57;25.03;;;14.30;97.40;;;;;;4943506;29;20801;-64
2021/03/24 15:16:37;;;;;;;44.83;26.50;;;14.40;97.80;;;;;;4944618;29;20775;-66
2021/03/24 15:19:32;;;;;;;41.43;25.97;;;14.50;98.00;;;;;;4940547;29;20802;-64
2021/03/24 15:22:15;;;;;;;40.50;24.40;;;14.40;97.60;;;;;;4944857;29;20779;-63
2021/03/24 15:25:01;;;;;;;46.63;26.00;;;14.20;98.10;;;;;;4947639;29;20889;-64
2021/03/24 15:27:35;;;;;;;42.17;24.13;;;14.30;98.10;;;;;;4940994;29;20788;-64
2021/03/24 15:30:09;;;;;;;40.17;25.13;;;14.40;98.40;;;;;;4947884;29;20733;-65
2021/03/24 15:32:43;;;;;;;42.13;24.83;;;14.40;98.70;;;;;;4947435;29;20786;-64
2021/03/24 15:35:19;;;;;;;44.07;25.30;;;14.50;98.50;;;;;;4947300;29;20794;-64
2021/03/24 15:38:33;;;;;;;47.17;27.90;;;14.50;98.30;;;;;;4944706;29;20802;-65
2021/03/24 15:41:20;;;;;;;39.43;26.10;;;14.30;98.10;;;;;;4930722;29;20444;-64
2021/03/24 15:44:02;;;;;;;42.63;28.20;;;14.30;98.40;;;;;;4945938;29;20790;-64
2021/03/24 15:46:32;;;;;;;42.83;25.63;;;14.20;98.60;;;;;;4945901;29;20788;-63
2021/03/24 15:49:08;;;;;;;38.23;26.13;;;14.20;99.20;;;;;;4947909;29;20515;-65
2021/03/24 15:51:39;;;;;;;46.40;26.17;;;14.10;99.10;;;;;;4945950;29;20451;-64
2021/03/24 15:54:15;;;;;;;43.33;28.07;;;14.00;99.70;;;;;;4949142;29;20447;-64
2021/03/24 15:57:14;;;;;;;46.50;27.53;;;14.00;99.90;;;;;;4940033;29;20765;-63
2021/03/24 16:00:09;;;;;;;42.33;25.63;;;13.90;99.90;;;;;;4919524;29;20449;-64
2021/03/24 16:02:53;;;;;;;45.00;25.87;;;13.90;99.90;;;;;;4959163;28;20915;-63
2021/03/24 16:05:29;;;;;;;42.70;26.97;;;13.90;99.90;;;;;;4963188;28;20852;-64
2021/03/24 16:08:13;;;;;;;49.20;27.27;;;13.80;99.90;;;;;;4965483;28;20805;-64
2021/03/24 16:10:45;;;;;;;46.60;27.63;;;13.80;99.90;;;;;;4963274;28;20855;-64
2021/03/24 16:13:25;;;;;;;56.23;26.87;;;13.70;99.90;;;;;;4966015;28;20801;-65
2021/03/24 16:16:18;;;;;;;43.60;27.33;;;13.70;99.90;;;;;;4966683;28;20460;-65
2021/03/24 16:19:13;;;;;;;51.13;28.27;;;13.80;99.90;;;;;;4968698;28;20448;-63
2021/03/24 16:21:47;;;;;;;45.17;26.10;;;13.70;99.90;;;;;;4963684;28;21081;-64
2021/03/24 16:24:26;;;;;;;45.37;30.13;;;13.70;99.90;;;;;;4967499;28;20919;-64
2021/03/24 16:27:11;;;;;;;38.17;25.83;;;13.70;99.90;;;;;;4970643;28;20606;-64
2021/03/24 16:29:53;;;;;;;41.03;26.97;;;13.70;99.90;;;;;;4967545;28;20820;-64
2021/03/24 16:32:54;;;;;;;41.00;27.40;;;13.60;99.90;;;;;;4969605;28;20892;-64
2021/03/24 16:36:11;;;;;;;46.83;24.73;;;13.50;99.90;;;;;;4967306;28;20909;-64
2021/03/24 16:39:04;;;;;;;50.43;27.97;;;13.40;99.90;;;;;;4958830;28;20862;-64
2021/03/24 16:41:48;;;;;;;46.00;28.33;;;13.40;99.90;;;;;;4966551;28;20791;-65
2021/03/24 16:44:44;;;;;;;46.57;28.43;;;13.40;99.90;;;;;;4968006;28;20470;-65
2021/03/24 16:47:55;;;;;;;49.20;29.67;;;13.40;99.90;;;;;;4968966;28;20448;-65
2021/03/24 16:50:38;;;;;;;46.13;25.63;;;13.30;99.90;;;;;;4965832;28;20423;-64
2021/03/24 16:53:19;;;;;;;44.50;27.13;;;13.30;99.90;;;;;;4965532;28;20507;-64
2021/03/24 16:56:26;;;;;;;43.97;27.50;;;13.30;99.90;;;;;;4962128;28;20455;-64
2021/03/24 16:59:02;;;;;;;45.83;26.47;;;13.30;99.90;;;;;;4965642;28;20920;-63
2021/03/24 17:01:42;;;;;;;44.13;30.50;;;13.30;99.90;;;;;;4943999;29;20855;-64
2021/03/24 17:04:24;;;;;;;46.03;27.10;;;13.20;99.90;;;;;;4949391;29;20866;-64
2021/03/24 17:06:57;;;;;;;42.77;27.17;;;13.20;99.90;;;;;;4950705;29;20724;-64
2021/03/24 17:09:40;;;;;;;43.43;27.53;;;13.20;99.90;;;;;;4963358;29;20820;-63
2021/03/24 17:12:18;;;;;;;43.00;27.17;;;13.10;99.90;;;;;;4962707;29;20823;-65
2021/03/24 17:14:57;;;;;;;45.27;27.43;;;13.10;99.90;;;;;;4962985;29;20769;-64
2021/03/24 17:17:54;;;;;;;49.80;28.87;;;13.00;99.90;;;;;;4962434;29;20456;-64
2021/03/24 17:20:26;;;;;;;52.90;31.63;;;13.00;99.90;;;;;;4941604;29;20520;-64
2021/03/24 17:23:04;;;;;;;46.33;29.67;;;13.00;99.90;;;;;;4962733;29;20456;-63
2021/03/24 17:25:36;;;;;;;50.10;30.00;;;12.90;99.90;;;;;;4962590;29;20956;-65
2021/03/24 17:28:24;;;;;;;48.13;32.07;;;12.90;99.90;;;;;;4962835;29;20487;-63
2021/03/24 17:31:08;;;;;;;51.77;30.60;;;12.80;99.90;;;;;;4962658;29;20762;-64
2021/03/24 17:33:52;;;;;;;51.50;31.60;;;12.70;99.90;;;;;;4962146;29;20443;-65
2021/03/24 17:36:58;;;;;;;50.60;30.27;;;12.70;99.90;;;;;;4962092;29;20820;-64
2021/03/24 17:39:43;;;;;;;53.90;29.30;;;12.70;99.90;;;;;;4962267;29;20435;-63
2021/03/24 17:42:24;;;;;;;52.77;31.40;;;12.60;99.90;;;;;;4961957;29;20785;-64
2021/03/24 17:45:02;;;;;;;49.60;30.67;;;12.60;99.90;;;;;;4962168;29;20804;-64
2021/03/24 17:47:47;;;;;;;51.70;32.50;;;12.50;99.90;;;;;;4961897;29;20459;-65
2021/03/24 17:50:25;;;;;;;57.20;32.63;;;12.40;99.90;;;;;;4962336;29;20475;-64
2021/03/24 17:52:56;;;;;;;54.23;32.07;;;12.40;99.90;;;;;;4962065;29;20790;-64
2021/03/24 17:55:42;;;;;;;58.47;33.10;;;12.40;99.90;;;;;;4961784;29;20518;-64
2021/03/24 17:58:30;;;;;;;53.27;33.50;;;12.30;99.90;;;;;;4952139;29;20788;-64
2021/03/24 18:01:03;;;;;;;58.33;33.63;;;12.30;99.90;;;;;;4942421;28;20997;-66
2021/03/24 18:04:05;;;;;;;57.03;34.57;;;12.30;99.90;;;;;;4961991;28;20448;-63
2021/03/24 18:06:40;;;;;;;54.90;33.63;;;12.30;99.90;;;;;;4964368;28;20480;-64
2021/03/24 18:09:14;;;;;;;48.80;30.13;;;12.30;99.90;;;;;;4966107;28;20970;-64
2021/03/24 18:11:46;;;;;;;56.47;34.07;;;12.20;99.90;;;;;;4968362;28;20907;-65
2021/03/24 18:14:40;;;;;;;54.30;33.70;;;12.10;99.90;;;;;;4963437;28;20808;-63
2021/03/24 18:17:31;;;;;;;54.30;32.13;;;12.10;99.90;;;;;;4965597;28;20543;-63
2021/03/24 18:20:04;;;;;;;62.13;35.10;;;12.10;99.90;;;;;;4951138;28;20484;-63
2021/03/24 18:22:38;;;;;;;56.63;34.07;;;12.00;99.90;;;;;;4955742;28;20831;-64
2021/03/24 18:25:19;;;;;;;58.90;34.83;;;11.90;99.90;;;;;;4964020;28;21071;-64
2021/03/24 18:27:55;;;;;;;62.47;36.80;;;11.90;99.90;;;;;;4968729;28;20442;-64
2021/03/24 18:30:26;;;;;;;61.33;35.23;;;12.00;99.90;;;;;;4965679;28;20455;-64
2021/03/24 18:32:54;;;;;;;54.53;35.30;;;12.00;99.90;;;;;;4946576;28;20891;-64
2021/03/24 18:35:24;;;;;;;86.63;50.20;;;12.00;99.90;;;;;;4939136;29;20780;-64
2021/03/24 18:37:57;;;;;;;65.33;38.60;;;11.90;99.90;;;;;;4938801;29;20759;-65
2021/03/24 18:40:29;;;;;;;61.77;36.00;;;11.90;99.90;;;;;;4939863;29;20838;-64
2021/03/24 18:43:02;;;;;;;66.87;38.17;;;11.90;99.90;;;;;;4940285;29;20484;-64
2021/03/24 18:45:34;;;;;;;61.63;36.47;;;11.90;99.90;;;;;;4940058;29;20775;-63
2021/03/24 18:48:25;;;;;;;59.93;36.93;;;11.90;99.90;;;;;;4940118;29;20877;-64
2021/03/24 18:50:55;;;;;;;72.60;39.17;;;11.90;99.90;;;;;;4941276;28;20455;-64
2021/03/24 18:53:45;;;;;;;60.57;34.90;;;11.90;99.90;;;;;;4960369;28;20786;-63
2021/03/24 18:56:16;;;;;;;70.97;40.50;;;11.80;99.90;;;;;;4967108;28;20792;-64
2021/03/24 18:58:51;;;;;;;66.93;38.67;;;11.70;99.90;;;;;;4964281;28;20768;-64
2021/03/24 19:01:41;;;;;;;73.33;39.73;;;11.60;99.90;;;;;;4964225;28;20485;-64